Aviation Digital Data Service (ADDS)

Output produced by TAFs form (1918 UTC 21 April 2018)
found at http://aviationweather.gov/adds/tafs/
 
Forecast for: RJEC (ASAHIKAWA AIRPOR, JP)
Text: TAF RJEC 211709Z 2118/2300 32006KT 9999 FEW008 BKN015
Forecast period: 1800 UTC 21 April 2018 to 1500 UTC 22 April 2018
Forecast type: FROM: standard forecast or significant change
Winds: from the NW (320 degrees) at 7 MPH (6 knots; 3.1 m/s)
Visibility: 6 or more miles (10+ km)
Ceiling: 1500 feet AGL
Clouds: few clouds at 800 feet AGL
broken clouds at 1500 feet AGL
Weather: no significant weather forecast for this period
Forecast for: RJEC (ASAHIKAWA AIRPOR, JP)
Text: TAF RJEC 211709Z 2118/2300 32006KT 9999 FEW008 BKN015
Forecast period: 1800 UTC 21 April 2018 to 1500 UTC 22 April 2018
Forecast type: FROM: standard forecast or significant change
Winds: from the NW (320 degrees) at 7 MPH (6 knots; 3.1 m/s)
Visibility: 6 or more miles (10+ km)
Ceiling: 1500 feet AGL
Clouds: few clouds at 800 feet AGL
broken clouds at 1500 feet AGL
Weather: no significant weather forecast for this period
Forecast for: RJEC (ASAHIKAWA AIRPOR, JP)
Text: TAF RJEC 211709Z 2118/2300 32006KT 9999 FEW008 BKN015
Forecast period: 1800 to 2100 UTC 21 April 2018
Forecast type: TEMPORARY: The following changes expected for less than half the time period
Visibility: 1.24 miles (2.00 km)
Weather: BR  (mist)
Forecast for: RJEC (ASAHIKAWA AIRPOR, JP)
Text: TAF RJEC 211709Z 2118/2300 32006KT 9999 FEW008 BKN015
Forecast period: 1800 to 2100 UTC 21 April 2018
Forecast type: TEMPORARY: The following changes expected for less than half the time period
Visibility: 1.24 miles (2.00 km)
Weather: BR  (mist)
Forecast for: RJEC (ASAHIKAWA AIRPOR, JP)
Text: TAF RJEC 211709Z 2118/2300 32006KT 9999 FEW008 BKN015
Forecast period: 1500 UTC 22 April 2018 to 0000 UTC 23 April 2018
Forecast type: BECOMING: Conditions expected to become as follows by 1800 UTC 22 April 2018
Winds: from the S (180 degrees) at 6 MPH (5 knots; 2.6 m/s)
Visibility: 6 or more miles (10+ km)
Ceiling: 1500 feet AGL
Clouds: few clouds at 800 feet AGL
broken clouds at 1500 feet AGL
Weather: no significant weather forecast for this period
Forecast for: RJEC (ASAHIKAWA AIRPOR, JP)
Text: TAF RJEC 211709Z 2118/2300 32006KT 9999 FEW008 BKN015
Forecast period: 1500 UTC 22 April 2018 to 0000 UTC 23 April 2018
Forecast type: BECOMING: Conditions expected to become as follows by 1800 UTC 22 April 2018
Winds: from the S (180 degrees) at 6 MPH (5 knots; 2.6 m/s)
Visibility: 6 or more miles (10+ km)
Ceiling: 1500 feet AGL
Clouds: few clouds at 800 feet AGL
broken clouds at 1500 feet AGL
Weather: no significant weather forecast for this period